createdAt,value
2018-06-04T00:04:22.096Z,5.60
2018-06-04T00:09:25.120Z,5.75
2018-06-04T00:14:28.216Z,5.60
2018-06-04T00:19:31.464Z,6.17
2018-06-04T00:24:36.808Z,6.05
2018-06-04T00:29:39.793Z,5.75
2018-06-04T00:34:42.783Z,5.85
2018-06-04T00:39:45.757Z,5.97
2018-06-04T00:44:48.750Z,5.67
2018-06-04T00:49:51.752Z,5.70
2018-06-04T00:54:54.820Z,5.65
2018-06-04T00:59:57.847Z,5.50
2018-06-04T01:05:00.825Z,5.17
2018-06-04T01:10:03.899Z,5.20
2018-06-04T01:15:06.941Z,5.40
2018-06-04T01:20:09.947Z,6.65
2018-06-04T01:25:13.003Z,6.37
2018-06-04T01:30:16.068Z,6.13
2018-06-04T01:35:19.126Z,6.17
2018-06-04T01:40:22.165Z,6.40
2018-06-04T01:45:25.193Z,5.45
2018-06-04T01:50:28.240Z,5.80
2018-06-04T01:55:31.307Z,5.37
2018-06-04T02:00:34.355Z,4.80
2018-06-04T02:05:38.139Z,5.22
2018-06-04T02:10:41.402Z,4.92
2018-06-04T02:15:44.448Z,5.33
2018-06-04T02:20:47.485Z,4.95
2018-06-04T02:25:50.499Z,5.60
2018-06-04T02:30:53.514Z,5.60
2018-06-04T02:35:56.538Z,5.60
2018-06-04T02:40:59.529Z,5.10
2018-06-04T02:46:02.507Z,5.12
2018-06-04T02:51:05.579Z,5.05
2018-06-04T02:56:08.734Z,5.97
2018-06-04T03:01:12.266Z,5.90
2018-06-04T03:06:15.304Z,5.33
2018-06-04T03:11:18.408Z,5.03
2018-06-04T03:16:21.684Z,6.33
2018-06-04T03:21:24.773Z,6.25
2018-06-04T03:26:27.957Z,5.95
2018-06-04T03:31:30.998Z,5.83
2018-06-04T03:36:34.148Z,5.70
2018-06-04T03:41:37.338Z,5.97
2018-06-04T03:46:40.437Z,5.75
2018-06-04T03:51:43.454Z,6.20
2018-06-04T03:56:46.661Z,6.22
2018-06-04T04:01:49.873Z,5.80
2018-06-04T04:06:53.125Z,6.00
2018-06-04T04:11:56.230Z,6.78
2018-06-04T04:16:59.270Z,7.08
2018-06-04T04:22:02.437Z,7.65
2018-06-04T04:27:05.727Z,8.85
2018-06-04T04:32:08.765Z,8.55
2018-06-04T04:37:13.472Z,8.03
2018-06-04T04:42:16.604Z,9.08
2018-06-04T04:47:19.610Z,9.40
2018-06-04T04:52:22.623Z,8.85
2018-06-04T04:57:25.674Z,9.00
2018-06-04T05:02:28.697Z,9.00
2018-06-04T05:07:31.725Z,8.63
2018-06-04T05:12:34.793Z,10.30
2018-06-04T05:17:44.280Z,9.70
2018-06-04T05:22:47.290Z,10.93
2018-06-04T05:27:50.283Z,10.40
2018-06-04T05:32:53.455Z,10.48
2018-06-04T05:37:57.069Z,10.50
2018-06-04T05:43:00.148Z,12.13
2018-06-04T05:48:03.225Z,12.58
2018-06-04T05:53:06.269Z,13.60
2018-06-04T05:58:09.312Z,14.10
2018-06-04T06:03:12.366Z,13.53
2018-06-04T06:08:15.528Z,11.38
2018-06-04T06:13:19.401Z,12.85
2018-06-04T06:18:22.444Z,12.45
2018-06-04T06:23:25.488Z,12.85
2018-06-04T06:28:28.528Z,11.70
2018-06-04T06:33:31.556Z,11.40
2018-06-04T06:38:34.600Z,13.48
2018-06-04T06:43:37.607Z,18.67
2018-06-04T06:48:40.642Z,18.80
2018-06-04T06:53:43.733Z,15.88
2018-06-04T06:58:46.760Z,14.98
2018-06-04T07:03:49.834Z,13.72
2018-06-04T07:08:52.921Z,13.10
2018-06-04T07:13:55.997Z,13.50
2018-06-04T07:18:59.028Z,12.25
2018-06-04T07:24:02.068Z,12.65
2018-06-04T07:29:05.161Z,12.75
2018-06-04T07:34:08.223Z,12.30
2018-06-04T07:39:11.247Z,12.35
2018-06-04T07:44:14.310Z,10.85
2018-06-04T07:49:17.350Z,12.07
2018-06-04T07:54:20.384Z,11.78
2018-06-04T07:59:23.408Z,11.22
2018-06-04T08:04:26.767Z,13.10
2018-06-04T08:09:29.833Z,11.83
2018-06-04T08:14:32.917Z,10.58
2018-06-04T08:19:36.029Z,10.75
2018-06-04T08:24:39.094Z,11.15
2018-06-04T08:29:44.464Z,15.70
2018-06-04T08:34:47.499Z,13.43
2018-06-04T08:39:50.713Z,11.38
2018-06-04T08:44:53.761Z,11.30
2018-06-04T08:49:56.840Z,14.33
2018-06-04T08:54:59.878Z,12.82
2018-06-04T09:00:02.899Z,12.60
2018-06-04T09:05:05.949Z,11.63
2018-06-04T09:10:08.935Z,10.78
2018-06-04T09:15:12.016Z,11.73
2018-06-04T09:20:15.090Z,11.43
2018-06-04T09:25:18.158Z,14.35
2018-06-04T09:30:21.210Z,13.22
2018-06-04T09:35:24.305Z,13.53
2018-06-04T09:40:27.348Z,15.50
2018-06-04T09:45:30.783Z,15.00
2018-06-04T09:50:33.866Z,17.87
2018-06-04T09:55:36.884Z,13.58
2018-06-04T10:00:39.969Z,13.03
2018-06-04T10:05:42.977Z,12.88
2018-06-04T10:10:46.057Z,13.28
2018-06-04T10:15:49.093Z,12.00
2018-06-04T10:20:52.105Z,11.90
2018-06-04T10:25:55.128Z,11.93
2018-06-04T10:30:58.346Z,12.47
2018-06-04T10:36:01.414Z,12.40
2018-06-04T10:41:04.477Z,11.93
2018-06-04T10:46:07.550Z,13.30
2018-06-04T10:51:10.559Z,12.68
2018-06-04T10:56:13.575Z,10.93
2018-06-04T11:01:16.729Z,9.95
2018-06-04T11:06:19.901Z,10.65
2018-06-04T11:11:22.944Z,11.28
2018-06-04T11:16:25.981Z,10.72
2018-06-04T11:21:29.076Z,9.63
2018-06-04T11:26:32.135Z,10.35
2018-06-04T11:31:35.169Z,10.38
2018-06-04T11:36:38.228Z,10.15
2018-06-04T11:41:41.224Z,10.48
2018-06-04T11:46:45.146Z,9.33
2018-06-04T11:51:48.253Z,9.88
2018-06-04T11:56:51.353Z,11.85
2018-06-04T12:01:54.407Z,13.00
2018-06-04T12:06:57.477Z,10.68
2018-06-04T12:12:00.502Z,10.93
2018-06-04T12:17:03.637Z,11.88
2018-06-04T12:22:06.719Z,11.22
2018-06-04T12:27:09.760Z,9.88
2018-06-04T12:32:12.805Z,9.68
2018-06-04T12:37:15.896Z,10.65
2018-06-04T12:42:18.951Z,10.72
2018-06-04T12:47:22.051Z,10.25
2018-06-04T12:52:25.100Z,9.80
2018-06-04T12:57:28.163Z,10.28
2018-06-04T13:02:31.285Z,9.60
2018-06-04T13:07:34.317Z,8.73
2018-06-04T13:12:37.362Z,8.65
2018-06-04T13:17:40.433Z,8.90
2018-06-04T13:22:43.526Z,9.10
2018-06-04T13:27:46.684Z,8.40
2018-06-04T13:32:49.732Z,9.00
2018-06-04T13:37:52.767Z,8.88
2018-06-04T13:42:56.781Z,7.75
2018-06-04T13:47:59.856Z,7.87
2018-06-04T13:53:02.875Z,7.95
2018-06-04T13:58:07.184Z,7.95
2018-06-04T14:03:10.491Z,8.15
2018-06-04T14:08:13.839Z,8.85
2018-06-04T14:13:17.098Z,9.30
2018-06-04T14:18:20.197Z,9.03
2018-06-04T14:23:23.294Z,9.88
2018-06-04T14:28:26.356Z,9.53
2018-06-04T14:33:29.439Z,9.30
2018-06-04T14:38:32.631Z,8.73
2018-06-04T14:43:35.685Z,8.93
2018-06-04T14:48:38.858Z,8.53
2018-06-04T14:53:42.031Z,8.28
2018-06-04T14:58:45.088Z,8.20
2018-06-04T15:03:48.160Z,7.80
2018-06-04T15:08:52.011Z,8.13
2018-06-04T15:13:55.024Z,6.92
2018-06-04T15:18:58.084Z,7.08
2018-06-04T15:24:01.434Z,6.70
2018-06-04T15:29:04.564Z,6.87
2018-06-04T15:34:07.606Z,6.83
2018-06-04T15:39:10.663Z,6.45
2018-06-04T15:44:13.749Z,6.85
2018-06-04T15:49:16.831Z,6.37
2018-06-04T15:54:19.860Z,6.65
2018-06-04T15:59:22.883Z,6.65
2018-06-04T16:04:25.905Z,6.97
2018-06-04T16:09:28.977Z,6.90
2018-06-04T16:14:32.117Z,7.08
2018-06-04T16:19:35.174Z,6.70
2018-06-04T16:24:38.500Z,7.25
2018-06-04T16:29:41.531Z,7.35
2018-06-04T16:34:44.585Z,7.20
2018-06-04T16:39:47.643Z,6.87
2018-06-04T16:44:50.853Z,6.92
2018-06-04T16:49:53.985Z,6.90
2018-06-04T16:54:57.076Z,7.65
2018-06-04T17:00:00.195Z,6.92
2018-06-04T17:05:03.333Z,7.12
2018-06-04T17:10:06.491Z,29.65
2018-06-04T17:15:09.883Z,7.50
2018-06-04T17:20:14.453Z,5.10
2018-06-04T17:25:17.748Z,5.03
2018-06-04T17:30:21.397Z,4.90
2018-06-04T17:35:24.727Z,4.97
2018-06-04T17:40:28.020Z,4.72
2018-06-04T17:45:31.131Z,5.47
2018-06-04T17:50:34.408Z,5.25
2018-06-04T17:55:37.645Z,4.58
2018-06-04T18:00:40.816Z,4.90
2018-06-04T18:05:44.037Z,5.22
2018-06-04T18:10:47.173Z,4.90
2018-06-04T18:15:50.297Z,4.58
2018-06-04T18:20:53.734Z,4.42
2018-06-04T18:25:57.092Z,4.33
2018-06-04T18:31:03.658Z,4.95
2018-06-04T18:36:12.172Z,4.58
2018-06-04T18:41:17.018Z,5.00
2018-06-04T18:46:25.780Z,4.80
2018-06-04T18:51:34.464Z,4.70
2018-06-04T18:56:53.676Z,5.20
2018-06-04T19:02:02.002Z,5.45
2018-06-04T19:07:33.761Z,4.97
2018-06-04T19:12:42.216Z,4.70
2018-06-04T19:17:46.434Z,4.75
2018-06-04T19:22:49.723Z,5.30
2018-06-04T19:27:52.945Z,5.08
2018-06-04T19:32:55.987Z,4.92
2018-06-04T19:37:59.618Z,4.92
2018-06-04T19:43:02.953Z,4.60
2018-06-04T19:48:06.676Z,5.15
2018-06-04T19:53:09.935Z,5.12
2018-06-04T19:58:14.001Z,5.30
2018-06-04T20:03:26.318Z,5.05
2018-06-04T20:08:32.173Z,4.83
2018-06-04T20:13:36.299Z,4.58
2018-06-04T20:18:40.523Z,4.70
2018-06-04T20:23:43.824Z,5.03
2018-06-04T20:28:47.924Z,5.40
2018-06-04T20:33:51.527Z,5.87
2018-06-04T20:38:54.933Z,6.70
2018-06-04T20:43:58.630Z,7.80
2018-06-04T20:49:02.829Z,7.30
2018-06-04T20:54:06.633Z,6.12
2018-06-04T20:59:09.852Z,5.55
2018-06-04T21:04:13.129Z,5.20
2018-06-04T21:09:16.167Z,5.60
2018-06-04T21:14:19.352Z,5.90
2018-06-04T21:19:22.870Z,4.80
2018-06-04T21:24:25.959Z,5.72
2018-06-04T21:29:29.069Z,5.60
2018-06-04T21:34:32.241Z,5.58
2018-06-04T21:39:35.349Z,5.30
2018-06-04T21:44:38.467Z,5.50
2018-06-04T21:49:41.589Z,5.62
2018-06-04T21:54:44.734Z,27.48
2018-06-04T21:59:47.900Z,6.53
2018-06-04T22:04:50.931Z,5.45
2018-06-04T22:09:54.106Z,5.58
2018-06-04T22:14:57.270Z,6.25
2018-06-04T22:20:00.332Z,6.53
2018-06-04T22:25:05.137Z,6.35
2018-06-04T22:30:08.963Z,6.42
2018-06-04T22:35:12.238Z,5.80
2018-06-04T22:40:15.425Z,6.20
2018-06-04T22:45:18.644Z,6.20
2018-06-04T22:50:22.964Z,6.87
2018-06-04T22:55:25.973Z,6.60
2018-06-04T23:00:31.626Z,6.95
2018-06-04T23:05:34.577Z,6.72
2018-06-04T23:10:38.116Z,6.85
2018-06-04T23:15:41.139Z,6.78
2018-06-04T23:20:44.175Z,6.42
2018-06-04T23:25:47.229Z,6.85
2018-06-04T23:30:50.675Z,6.20
2018-06-04T23:35:53.801Z,6.90
2018-06-04T23:40:56.843Z,7.20
2018-06-04T23:45:59.913Z,6.28
2018-06-04T23:51:02.917Z,5.92
2018-06-04T23:56:06.312Z,6.70
